createdAt,value
2017-07-22T16:08:01.400Z,7.10
2017-07-22T16:10:29.709Z,6.73
2017-07-22T16:12:57.961Z,6.40
2017-07-22T16:15:27.030Z,6.30
2017-07-22T16:17:55.285Z,6.03
2017-07-22T16:20:23.533Z,6.40
2017-07-22T16:22:51.822Z,7.13
2017-07-22T16:25:20.845Z,6.80
2017-07-22T16:27:49.094Z,6.13
2017-07-22T16:30:17.406Z,6.27
2017-07-22T16:32:45.694Z,7.27
2017-07-22T16:35:13.944Z,6.40
2017-07-22T16:37:42.982Z,5.80
2017-07-22T16:40:11.224Z,5.83
2017-07-22T16:42:39.510Z,5.57
2017-07-22T16:45:07.833Z,6.27
2017-07-22T16:47:36.117Z,5.60
2017-07-22T16:50:04.361Z,5.43
2017-07-22T16:52:32.670Z,5.57
2017-07-22T16:55:01.678Z,5.40
2017-07-22T16:57:29.925Z,5.50
2017-07-22T16:59:58.188Z,5.77
2017-07-22T17:02:26.441Z,5.00
2017-07-22T17:04:55.485Z,5.47
2017-07-22T17:07:23.764Z,5.20
2017-07-22T17:09:52.791Z,4.80
2017-07-22T17:12:21.064Z,4.63
2017-07-22T17:14:49.362Z,5.03
2017-07-22T17:17:18.393Z,4.70
2017-07-22T17:19:46.661Z,5.70
2017-07-22T17:22:14.933Z,5.57
2017-07-22T17:24:43.178Z,5.10
2017-07-22T17:27:11.454Z,5.10
2017-07-22T17:29:39.767Z,5.80
2017-07-22T17:32:08.051Z,6.03
2017-07-22T17:34:36.343Z,6.03
2017-07-22T17:37:04.628Z,6.20
2017-07-22T17:39:33.670Z,6.30
2017-07-22T17:42:01.920Z,6.63
2017-07-22T17:44:30.030Z,6.60
2017-07-22T17:46:58.305Z,7.73
2017-07-22T17:49:26.557Z,7.33
2017-07-22T17:51:54.857Z,7.97
2017-07-22T17:54:23.113Z,8.03
2017-07-22T17:56:51.397Z,7.80
2017-07-22T17:59:19.706Z,8.30
2017-07-22T18:01:47.961Z,9.10
2017-07-22T18:04:16.204Z,8.90
2017-07-22T18:06:44.507Z,8.73
2017-07-22T18:09:12.794Z,9.00
2017-07-22T18:11:41.045Z,9.27
2017-07-22T18:14:09.343Z,8.13
2017-07-22T18:16:38.367Z,9.83
2017-07-22T18:19:06.688Z,9.73
2017-07-22T18:21:34.972Z,8.43
2017-07-22T18:24:03.227Z,9.60
2017-07-22T18:26:31.505Z,9.67
2017-07-22T18:28:59.814Z,9.00
2017-07-22T18:31:28.828Z,9.67
2017-07-22T18:33:57.190Z,9.27
2017-07-22T18:36:25.457Z,8.83
2017-07-22T18:38:53.751Z,8.87
2017-07-22T18:41:22.048Z,8.70
2017-07-22T18:43:50.330Z,8.97
2017-07-22T18:46:18.580Z,9.53
2017-07-22T18:48:46.837Z,9.13
2017-07-22T18:51:15.146Z,9.07
2017-07-22T18:53:43.426Z,9.10
2017-07-22T18:56:12.466Z,9.10
2017-07-22T18:58:40.779Z,10.00
2017-07-22T19:01:09.796Z,9.87
2017-07-22T19:03:38.082Z,10.57
2017-07-22T19:06:06.352Z,9.50
2017-07-22T19:08:34.641Z,10.50
2017-07-22T19:11:02.940Z,10.70
2017-07-22T19:13:31.266Z,10.93
2017-07-22T19:15:59.512Z,10.80
2017-07-22T19:18:28.530Z,10.93
2017-07-22T19:20:56.800Z,9.80
2017-07-22T19:23:25.173Z,11.13
2017-07-22T19:25:53.505Z,10.10
2017-07-22T19:28:21.869Z,10.70
2017-07-22T19:30:50.172Z,11.80
2017-07-22T19:33:18.490Z,10.60
2017-07-22T19:35:47.001Z,11.43
2017-07-22T19:38:15.379Z,12.00
2017-07-22T19:40:44.560Z,12.53
2017-07-22T19:43:13.737Z,11.87
2017-07-22T19:45:42.837Z,11.80
2017-07-22T19:48:11.976Z,11.53
2017-07-22T19:50:40.499Z,11.67
2017-07-22T19:53:08.812Z,12.23
2017-07-22T19:55:37.257Z,12.13
2017-07-22T19:58:05.687Z,12.30
2017-07-22T20:00:33.990Z,12.33
2017-07-22T20:03:02.278Z,11.60
2017-07-22T20:05:31.347Z,11.97
2017-07-22T20:08:02.138Z,12.10
2017-07-22T20:10:30.401Z,10.30
2017-07-22T20:12:58.962Z,10.93
2017-07-22T20:15:27.246Z,11.20
2017-07-22T20:17:55.542Z,11.70
2017-07-22T20:20:23.821Z,11.60
2017-07-22T20:22:52.117Z,12.60
2017-07-22T20:25:20.386Z,12.57
2017-07-22T20:27:48.669Z,12.77
2017-07-22T20:30:17.686Z,12.40
2017-07-22T20:32:45.946Z,12.33
2017-07-22T20:35:14.261Z,11.47
2017-07-22T20:37:43.324Z,13.10
2017-07-22T20:40:12.345Z,13.17
2017-07-22T20:42:40.616Z,13.17
2017-07-22T20:45:08.914Z,11.20
2017-07-22T20:47:37.198Z,11.83
2017-07-22T20:50:06.241Z,12.23
2017-07-22T20:52:34.492Z,11.70
2017-07-22T20:55:02.745Z,14.37
2017-07-22T20:57:31.070Z,13.60
2017-07-22T20:59:59.328Z,13.33
2017-07-22T21:02:27.632Z,14.43
2017-07-22T21:04:55.921Z,14.53
2017-07-22T21:07:24.181Z,12.83
2017-07-22T21:09:52.436Z,14.50
2017-07-22T21:12:20.716Z,12.10
2017-07-22T21:14:49.733Z,13.20
2017-07-22T21:17:18.029Z,13.87
2017-07-22T21:19:46.316Z,13.43
2017-07-22T21:22:15.336Z,13.83
2017-07-22T21:24:43.589Z,14.63
2017-07-22T21:27:11.889Z,14.93
2017-07-22T21:29:40.137Z,15.10
2017-07-22T21:32:08.427Z,16.90
2017-07-22T21:34:37.503Z,16.93
2017-07-22T21:37:06.548Z,16.50
2017-07-22T21:39:34.837Z,16.60
2017-07-22T21:42:03.889Z,17.83
2017-07-22T21:44:32.184Z,17.30
2017-07-22T21:47:01.205Z,17.23
2017-07-22T21:49:29.506Z,18.73
2017-07-22T21:51:57.797Z,19.73
2017-07-22T21:54:26.050Z,17.50
2017-07-22T21:56:55.092Z,18.40
2017-07-22T21:59:23.341Z,18.53
2017-07-22T22:01:51.635Z,16.90
2017-07-22T22:04:20.722Z,17.80
2017-07-22T22:06:49.744Z,17.50
2017-07-22T22:09:18.102Z,17.97
2017-07-22T22:11:46.376Z,17.27
2017-07-22T22:14:14.666Z,18.33
2017-07-22T22:16:42.923Z,20.73
2017-07-22T22:19:11.223Z,22.40
2017-07-22T22:21:39.484Z,22.67
2017-07-22T22:24:07.771Z,21.67
2017-07-22T22:26:36.064Z,22.10
2017-07-22T22:29:04.345Z,22.73
2017-07-22T22:31:32.625Z,23.30
2017-07-22T22:34:00.930Z,21.60
2017-07-22T22:36:29.188Z,23.23
2017-07-22T22:38:57.481Z,25.37
2017-07-22T22:41:26.541Z,21.60
2017-07-22T22:43:55.188Z,23.00
2017-07-22T22:46:23.452Z,24.90
2017-07-22T22:48:51.731Z,24.97
2017-07-22T22:51:20.017Z,25.30
2017-07-22T22:53:48.311Z,24.63
2017-07-22T22:56:16.584Z,26.80
2017-07-22T22:58:44.883Z,26.80
2017-07-22T23:01:13.809Z,25.67
2017-07-22T23:03:42.077Z,25.60
2017-07-22T23:06:10.366Z,25.13
2017-07-22T23:08:38.624Z,25.50
2017-07-22T23:11:06.913Z,27.00
2017-07-22T23:13:35.165Z,26.80
2017-07-22T23:16:04.253Z,27.20
2017-07-22T23:18:32.553Z,31.20
2017-07-22T23:21:00.846Z,30.47
2017-07-22T23:23:29.873Z,29.70
2017-07-22T23:25:58.154Z,32.37
2017-07-22T23:28:26.445Z,28.90
2017-07-22T23:30:55.471Z,31.30
2017-07-22T23:33:23.754Z,31.23
2017-07-22T23:35:52.039Z,30.67
2017-07-22T23:38:20.291Z,31.43
2017-07-22T23:40:48.597Z,30.00
2017-07-22T23:43:16.882Z,32.33
2017-07-22T23:45:45.188Z,33.30
2017-07-22T23:48:14.266Z,33.17
2017-07-22T23:50:43.327Z,30.13
2017-07-22T23:53:11.584Z,31.90
2017-07-22T23:55:39.861Z,32.20
2017-07-22T23:58:08.146Z,33.70
